sensor_id;sensor_type;location;lat;lon;timestamp;pressure;altitude;pressure_sealevel;temperature;humidity
26657;BME280;14279;50.010;8.260;2024-01-30T00:00:16;101859.66;;;4.10;87.93
26657;BME280;14279;50.010;8.260;2024-01-30T00:02:41;101855.31;;;3.98;88.36
26657;BME280;14279;50.010;8.260;2024-01-30T00:05:08;101854.53;;;4.11;88.17
26657;BME280;14279;50.010;8.260;2024-01-30T00:07:33;101856.25;;;4.14;87.94
26657;BME280;14279;50.010;8.260;2024-01-30T00:09:58;101857.13;;;4.16;87.74
26657;BME280;14279;50.010;8.260;2024-01-30T00:12:24;101854.56;;;4.14;88.18
26657;BME280;14279;50.010;8.260;2024-01-30T00:14:51;101859.66;;;4.10;87.90
26657;BME280;14279;50.010;8.260;2024-01-30T00:17:16;101853.69;;;4.15;87.53
26657;BME280;14279;50.010;8.260;2024-01-30T00:19:42;101854.59;;;4.22;87.36
26657;BME280;14279;50.010;8.260;2024-01-30T00:22:07;101854.59;;;4.27;87.40
26657;BME280;14279;50.010;8.260;2024-01-30T00:24:32;101853.69;;;4.15;87.06
26657;BME280;14279;50.010;8.260;2024-01-30T00:26:58;101855.34;;;4.04;88.01
26657;BME280;14279;50.010;8.260;2024-01-30T00:29:23;101857.06;;;4.05;88.29
26657;BME280;14279;50.010;8.260;2024-01-30T00:31:50;101857.09;;;4.08;87.69
26657;BME280;14279;50.010;8.260;2024-01-30T00:34:15;101850.22;;;4.07;87.86
26657;BME280;14279;50.010;8.260;2024-01-30T00:36:41;101857.88;;;3.96;88.36
26657;BME280;14279;50.010;8.260;2024-01-30T00:39:06;101855.22;;;3.82;89.07
26657;BME280;14279;50.010;8.260;2024-01-30T00:41:34;101857.84;;;3.84;89.55
26657;BME280;14279;50.010;8.260;2024-01-30T00:43:59;101862.03;;;3.74;90.36
26657;BME280;14279;50.010;8.260;2024-01-30T00:46:25;101857.72;;;3.67;90.33
26657;BME280;14279;50.010;8.260;2024-01-30T00:48:50;101851.69;;;3.61;90.64
26657;BME280;14279;50.010;8.260;2024-01-30T00:51:15;101853.34;;;3.55;91.76
26657;BME280;14279;50.010;8.260;2024-01-30T00:53:40;101858.44;;;3.50;92.40
26657;BME280;14279;50.010;8.260;2024-01-30T00:56:07;101855.03;;;3.50;92.73
26657;BME280;14279;50.010;8.260;2024-01-30T00:58:32;101855.03;;;3.48;92.23
26657;BME280;14279;50.010;8.260;2024-01-30T01:00:57;101864.38;;;3.38;92.52
26657;BME280;14279;50.010;8.260;2024-01-30T01:03:22;101858.44;;;3.44;92.59
26657;BME280;14279;50.010;8.260;2024-01-30T01:05:48;101866.09;;;3.38;92.33
26657;BME280;14279;50.010;8.260;2024-01-30T01:08:13;101860.94;;;3.39;92.48
26657;BME280;14279;50.010;8.260;2024-01-30T01:10:40;101861.06;;;3.56;91.81
26657;BME280;14279;50.010;8.260;2024-01-30T01:13:05;101859.41;;;3.60;91.33
26657;BME280;14279;50.010;8.260;2024-01-30T01:15:30;101856.84;;;3.65;90.82
26657;BME280;14279;50.010;8.260;2024-01-30T01:17:55;101860.25;;;3.59;90.87
26657;BME280;14279;50.010;8.260;2024-01-30T01:20:21;101870.56;;;3.62;90.49
26657;BME280;14279;50.010;8.260;2024-01-30T01:22:46;101863.69;;;3.63;89.84
26657;BME280;14279;50.010;8.260;2024-01-30T01:25:11;101862.81;;;3.59;90.04
26657;BME280;14279;50.010;8.260;2024-01-30T01:27:37;101869.59;;;3.49;90.02
26657;BME280;14279;50.010;8.260;2024-01-30T01:30:08;101867.03;;;3.46;90.37
26657;BME280;14279;50.010;8.260;2024-01-30T01:32:34;101863.66;;;3.56;90.13
26657;BME280;14279;50.010;8.260;2024-01-30T01:35:00;101862.88;;;3.67;89.44
26657;BME280;14279;50.010;8.260;2024-01-30T01:37:25;101859.47;;;3.71;88.70
26657;BME280;14279;50.010;8.260;2024-01-30T01:39:52;101862.03;;;3.68;88.68
26657;BME280;14279;50.010;8.260;2024-01-30T01:42:17;101857.75;;;3.70;88.67
26657;BME280;14279;50.010;8.260;2024-01-30T01:44:42;101852.59;;;3.71;88.39
26657;BME280;14279;50.010;8.260;2024-01-30T01:47:08;101867.19;;;3.74;87.96
26657;BME280;14279;50.010;8.260;2024-01-30T01:49:33;101854.31;;;3.72;87.80
26657;BME280;14279;50.010;8.260;2024-01-30T01:51:59;101858.63;;;3.73;87.60
26657;BME280;14279;50.010;8.260;2024-01-30T01:54:25;101854.31;;;3.72;88.12
26657;BME280;14279;50.010;8.260;2024-01-30T01:56:52;101860.31;;;3.70;87.69
26657;BME280;14279;50.010;8.260;2024-01-30T01:59:19;101857.72;;;3.68;88.17
26657;BME280;14279;50.010;8.260;2024-01-30T02:01:45;101854.31;;;3.72;88.18
26657;BME280;14279;50.010;8.260;2024-01-30T02:04:14;101856.88;;;3.74;87.87
26657;BME280;14279;50.010;8.260;2024-01-30T02:06:39;101851.75;;;3.72;87.78
26657;BME280;14279;50.010;8.260;2024-01-30T02:09:04;101844.03;;;3.71;88.17
26657;BME280;14279;50.010;8.260;2024-01-30T02:11:30;101851.75;;;3.71;87.90
26657;BME280;14279;50.010;8.260;2024-01-30T02:13:55;101838.00;;;3.73;88.27
26657;BME280;14279;50.010;8.260;2024-01-30T02:16:21;101843.16;;;3.75;87.88
26657;BME280;14279;50.010;8.260;2024-01-30T02:18:46;101846.59;;;3.77;87.43
26657;BME280;14279;50.010;8.260;2024-01-30T02:21:15;101848.31;;;3.73;87.73
26657;BME280;14279;50.010;8.260;2024-01-30T02:23:40;101844.03;;;3.75;87.82
26657;BME280;14279;50.010;8.260;2024-01-30T02:26:06;101844.06;;;3.79;87.41
26657;BME280;14279;50.010;8.260;2024-01-30T02:28:31;101851.75;;;3.72;87.44
26657;BME280;14279;50.010;8.260;2024-01-30T02:30:56;101844.88;;;3.70;87.63
26657;BME280;14279;50.010;8.260;2024-01-30T02:33:22;101848.31;;;3.72;87.38
26657;BME280;14279;50.010;8.260;2024-01-30T02:35:47;101844.03;;;3.75;87.02
26657;BME280;14279;50.010;8.260;2024-01-30T02:38:13;101845.75;;;3.72;87.28
26657;BME280;14279;50.010;8.260;2024-01-30T02:40:38;101853.47;;;3.72;86.85
26657;BME280;14279;50.010;8.260;2024-01-30T02:43:03;101851.69;;;3.65;87.32
26657;BME280;14279;50.010;8.260;2024-01-30T02:45:29;101849.91;;;3.54;87.25
26657;BME280;14279;50.010;8.260;2024-01-30T02:47:54;101850.81;;;3.58;87.81
26657;BME280;14279;50.010;8.260;2024-01-30T02:50:19;101849.06;;;3.57;87.40
26657;BME280;14279;50.010;8.260;2024-01-30T02:52:45;101846.41;;;3.43;88.26
26657;BME280;14279;50.010;8.260;2024-01-30T02:55:10;101848.09;;;3.42;88.39
26657;BME280;14279;50.010;8.260;2024-01-30T02:57:37;101838.63;;;3.38;87.96
26657;BME280;14279;50.010;8.260;2024-01-30T03:00:03;101842.91;;;3.35;88.04
26657;BME280;14279;50.010;8.260;2024-01-30T03:02:30;101836.00;;;3.29;88.09
26657;BME280;14279;50.010;8.260;2024-01-30T03:04:55;101837.66;;;3.25;88.10
26657;BME280;14279;50.010;8.260;2024-01-30T03:07:21;101830.81;;;3.27;87.93
26657;BME280;14279;50.010;8.260;2024-01-30T03:09:46;101834.31;;;3.37;87.78
26657;BME280;14279;50.010;8.260;2024-01-30T03:12:11;101830.06;;;3.36;87.97
26657;BME280;14279;50.010;8.260;2024-01-30T03:14:37;101835.13;;;3.28;88.43
26657;BME280;14279;50.010;8.260;2024-01-30T03:17:02;101838.59;;;3.32;88.65
26657;BME280;14279;50.010;8.260;2024-01-30T03:19:28;101843.75;;;3.32;88.99
26657;BME280;14279;50.010;8.260;2024-01-30T03:21:53;101836.00;;;3.30;88.84
26657;BME280;14279;50.010;8.260;2024-01-30T03:24:18;101839.47;;;3.36;88.73
26657;BME280;14279;50.010;8.260;2024-01-30T03:26:43;101843.78;;;3.37;88.05
26657;BME280;14279;50.010;8.260;2024-01-30T03:29:09;101837.81;;;3.41;87.83
26657;BME280;14279;50.010;8.260;2024-01-30T03:31:34;101840.25;;;3.25;88.19
26657;BME280;14279;50.010;8.260;2024-01-30T03:34:01;101838.50;;;3.18;89.09
26657;BME280;14279;50.010;8.260;2024-01-30T03:36:26;101843.50;;;3.04;89.79
26657;BME280;14279;50.010;8.260;2024-01-30T03:38:52;101837.44;;;2.97;90.67
26657;BME280;14279;50.010;8.260;2024-01-30T03:41:17;101840.00;;;2.94;91.02
26657;BME280;14279;50.010;8.260;2024-01-30T03:43:42;101840.09;;;3.05;90.89
26657;BME280;14279;50.010;8.260;2024-01-30T03:46:07;101852.09;;;3.08;90.76
26657;BME280;14279;50.010;8.260;2024-01-30T03:48:33;101840.97;;;3.09;90.78
26657;BME280;14279;50.010;8.260;2024-01-30T03:50:58;101837.47;;;3.02;90.92
26657;BME280;14279;50.010;8.260;2024-01-30T03:53:24;101836.56;;;2.95;90.91
26657;BME280;14279;50.010;8.260;2024-01-30T03:55:49;101837.44;;;2.97;90.73
26657;BME280;14279;50.010;8.260;2024-01-30T03:58:14;101835.72;;;2.96;90.56
26657;BME280;14279;50.010;8.260;2024-01-30T04:00:40;101840.03;;;2.99;90.34
26657;BME280;14279;50.010;8.260;2024-01-30T04:03:06;101839.16;;;2.97;89.91
26657;BME280;14279;50.010;8.260;2024-01-30T04:05:31;101835.78;;;3.06;90.06
26657;BME280;14279;50.010;8.260;2024-01-30T04:07:57;101835.75;;;3.03;90.20
26657;BME280;14279;50.010;8.260;2024-01-30T04:10:23;101832.38;;;3.07;89.91
26657;BME280;14279;50.010;8.260;2024-01-30T04:12:49;101834.97;;;3.10;89.29
26657;BME280;14279;50.010;8.260;2024-01-30T04:15:15;101835.88;;;3.15;89.13
26657;BME280;14279;50.010;8.260;2024-01-30T04:17:41;101831.63;;;3.19;89.71
26657;BME280;14279;50.010;8.260;2024-01-30T04:20:06;101834.22;;;3.20;89.72
26657;BME280;14279;50.010;8.260;2024-01-30T04:22:32;101829.91;;;3.19;90.42
26657;BME280;14279;50.010;8.260;2024-01-30T04:24:57;101828.13;;;3.12;90.69
26657;BME280;14279;50.010;8.260;2024-01-30T04:27:22;101837.56;;;3.11;91.29
26657;BME280;14279;50.010;8.260;2024-01-30T04:29:48;101834.97;;;3.08;91.45
26657;BME280;14279;50.010;8.260;2024-01-30T04:32:13;101836.69;;;3.11;90.92
26657;BME280;14279;50.010;8.260;2024-01-30T04:34:38;101841.88;;;3.14;90.93
26657;BME280;14279;50.010;8.260;2024-01-30T04:37:04;101837.56;;;3.14;90.96
26657;BME280;14279;50.010;8.260;2024-01-30T04:39:29;101840.16;;;3.13;90.82
26657;BME280;14279;50.010;8.260;2024-01-30T04:41:55;101833.31;;;3.16;90.21
26657;BME280;14279;50.010;8.260;2024-01-30T04:44:20;101836.72;;;3.15;90.12
26657;BME280;14279;50.010;8.260;2024-01-30T04:46:46;101831.53;;;3.06;89.89
26657;BME280;14279;50.010;8.260;2024-01-30T04:49:11;101830.63;;;3.03;89.92
26657;BME280;14279;50.010;8.260;2024-01-30T04:51:36;101829.75;;;3.00;90.30
26657;BME280;14279;50.010;8.260;2024-01-30T04:54:02;101838.28;;;2.95;89.63
26657;BME280;14279;50.010;8.260;2024-01-30T04:56:27;101832.31;;;2.99;89.84
26657;BME280;14279;50.010;8.260;2024-01-30T04:58:52;101836.50;;;2.88;89.92
26657;BME280;14279;50.010;8.260;2024-01-30T05:01:17;101838.09;;;2.78;90.23
26657;BME280;14279;50.010;8.260;2024-01-30T05:03:43;101841.59;;;2.81;90.64
26657;BME280;14279;50.010;8.260;2024-01-30T05:06:08;101845.91;;;2.87;90.51
26657;BME280;14279;50.010;8.260;2024-01-30T05:08:34;101843.34;;;2.85;90.00
26657;BME280;14279;50.010;8.260;2024-01-30T05:11:02;101842.38;;;2.74;90.36
26657;BME280;14279;50.010;8.260;2024-01-30T05:13:29;101845.00;;;2.82;90.92
26657;BME280;14279;50.010;8.260;2024-01-30T05:15:55;101844.19;;;2.84;90.53
26657;BME280;14279;50.010;8.260;2024-01-30T05:18:20;101839.03;;;2.86;89.72
26657;BME280;14279;50.010;8.260;2024-01-30T05:20:45;101832.13;;;2.82;89.95
26657;BME280;14279;50.010;8.260;2024-01-30T05:23:10;101839.03;;;2.86;89.65
26657;BME280;14279;50.010;8.260;2024-01-30T05:25:36;101837.34;;;2.87;88.92
26657;BME280;14279;50.010;8.260;2024-01-30T05:28:01;101848.53;;;2.92;89.08
26657;BME280;14279;50.010;8.260;2024-01-30T05:30:26;101850.22;;;2.90;89.26
26657;BME280;14279;50.010;8.260;2024-01-30T05:32:51;101855.28;;;2.80;89.18
26657;BME280;14279;50.010;8.260;2024-01-30T05:35:17;101852.66;;;2.73;89.46
26657;BME280;14279;50.010;8.260;2024-01-30T05:37:43;101850.91;;;2.73;89.66
26657;BME280;14279;50.010;8.260;2024-01-30T05:40:08;101849.25;;;2.77;89.43
26657;BME280;14279;50.010;8.260;2024-01-30T05:42:34;101852.72;;;2.82;90.03
26657;BME280;14279;50.010;8.260;2024-01-30T05:44:59;101851.91;;;2.86;89.41
26657;BME280;14279;50.010;8.260;2024-01-30T05:47:24;101846.78;;;2.91;89.50
26657;BME280;14279;50.010;8.260;2024-01-30T05:49:49;101845.97;;;2.93;89.28
26657;BME280;14279;50.010;8.260;2024-01-30T05:52:15;101845.91;;;2.87;88.74
26657;BME280;14279;50.010;8.260;2024-01-30T05:54:41;101841.69;;;2.94;89.18
26657;BME280;14279;50.010;8.260;2024-01-30T05:57:06;101839.06;;;2.91;88.99
26657;BME280;14279;50.010;8.260;2024-01-30T05:59:32;101839.94;;;2.90;89.13
26657;BME280;14279;50.010;8.260;2024-01-30T06:01:57;101851.94;;;2.89;89.08
26657;BME280;14279;50.010;8.260;2024-01-30T06:04:23;101851.94;;;2.88;89.84
26657;BME280;14279;50.010;8.260;2024-01-30T06:06:48;101853.59;;;2.84;90.11
26657;BME280;14279;50.010;8.260;2024-01-30T06:09:13;101857.00;;;2.81;89.78
26657;BME280;14279;50.010;8.260;2024-01-30T06:11:39;101853.63;;;2.85;90.26
26657;BME280;14279;50.010;8.260;2024-01-30T06:14:04;101855.38;;;2.90;90.14
26657;BME280;14279;50.010;8.260;2024-01-30T06:16:29;101852.72;;;2.82;90.68
26657;BME280;14279;50.010;8.260;2024-01-30T06:18:56;101859.59;;;2.83;89.84
26657;BME280;14279;50.010;8.260;2024-01-30T06:21:21;101861.34;;;2.87;90.01
26657;BME280;14279;50.010;8.260;2024-01-30T06:23:47;101856.16;;;2.84;89.61
26657;BME280;14279;50.010;8.260;2024-01-30T06:26:12;101853.59;;;2.82;90.08
26657;BME280;14279;50.010;8.260;2024-01-30T06:28:37;101857.00;;;2.81;89.87
26657;BME280;14279;50.010;8.260;2024-01-30T06:31:03;101860.44;;;2.82;89.73
26657;BME280;14279;50.010;8.260;2024-01-30T06:33:28;101860.47;;;2.83;89.55
26657;BME280;14279;50.010;8.260;2024-01-30T06:35:53;101860.44;;;2.80;89.48
26657;BME280;14279;50.010;8.260;2024-01-30T06:38:18;101861.28;;;2.81;89.71
26657;BME280;14279;50.010;8.260;2024-01-30T06:40:44;101863.88;;;2.82;90.00
26657;BME280;14279;50.010;8.260;2024-01-30T06:43:09;101864.78;;;2.84;89.93
26657;BME280;14279;50.010;8.260;2024-01-30T06:45:34;101864.69;;;2.77;89.61
26657;BME280;14279;50.010;8.260;2024-01-30T06:48:00;101871.09;;;3.19;91.30
26657;BME280;14279;50.010;8.260;2024-01-30T06:50:27;101865.97;;;3.22;89.44
26657;BME280;14279;50.010;8.260;2024-01-30T06:52:55;101872.00;;;3.26;89.03
26657;BME280;14279;50.010;8.260;2024-01-30T06:55:20;101861.69;;;3.27;89.42
26657;BME280;14279;50.010;8.260;2024-01-30T06:57:46;101863.41;;;3.25;89.89
26657;BME280;14279;50.010;8.260;2024-01-30T07:00:11;101860.03;;;3.31;90.66
26657;BME280;14279;50.010;8.260;2024-01-30T07:02:37;101856.66;;;3.35;90.03
26657;BME280;14279;50.010;8.260;2024-01-30T07:05:02;101862.56;;;3.23;90.12
26657;BME280;14279;50.010;8.260;2024-01-30T07:07:28;101865.19;;;3.31;90.52
26657;BME280;14279;50.010;8.260;2024-01-30T07:09:54;101867.72;;;3.29;90.53
26657;BME280;14279;50.010;8.260;2024-01-30T07:12:24;101877.22;;;3.32;90.83
26657;BME280;14279;50.010;8.260;2024-01-30T07:14:51;101872.84;;;3.25;91.17
26657;BME280;14279;50.010;8.260;2024-01-30T07:17:16;101868.63;;;3.35;91.07
26657;BME280;14279;50.010;8.260;2024-01-30T07:19:41;101864.41;;;3.43;90.75
26657;BME280;14279;50.010;8.260;2024-01-30T07:22:07;101865.97;;;3.25;90.71
26657;BME280;14279;50.010;8.260;2024-01-30T07:24:33;101869.50;;;3.38;90.63
26657;BME280;14279;50.010;8.260;2024-01-30T07:26:58;101873.75;;;3.30;90.53
26657;BME280;14279;50.010;8.260;2024-01-30T07:29:23;101869.50;;;3.32;91.21
26657;BME280;14279;50.010;8.260;2024-01-30T07:31:48;101873.81;;;3.39;90.88
26657;BME280;14279;50.010;8.260;2024-01-30T07:34:14;101876.44;;;3.44;90.57
26657;BME280;14279;50.010;8.260;2024-01-30T07:36:39;101870.31;;;3.29;90.58
26657;BME280;14279;50.010;8.260;2024-01-30T07:39:04;101865.09;;;3.20;90.80
26657;BME280;14279;50.010;8.260;2024-01-30T07:41:30;101872.56;;;2.92;91.55
26657;BME280;14279;50.010;8.260;2024-01-30T07:43:55;101875.03;;;2.83;91.39
26657;BME280;14279;50.010;8.260;2024-01-30T07:46:20;101878.34;;;2.73;92.20
26657;BME280;14279;50.010;8.260;2024-01-30T07:48:45;101869.00;;;2.79;91.41
26657;BME280;14279;50.010;8.260;2024-01-30T07:51:11;101873.31;;;2.83;90.54
26657;BME280;14279;50.010;8.260;2024-01-30T07:53:36;101875.13;;;2.92;90.32
26657;BME280;14279;50.010;8.260;2024-01-30T07:56:01;101878.53;;;2.93;90.34
26657;BME280;14279;50.010;8.260;2024-01-30T07:58:27;101882.00;;;2.93;90.11
26657;BME280;14279;50.010;8.260;2024-01-30T08:00:53;101889.78;;;2.99;89.48
26657;BME280;14279;50.010;8.260;2024-01-30T08:03:18;101898.34;;;3.01;90.02
26657;BME280;14279;50.010;8.260;2024-01-30T08:05:44;101894.09;;;3.00;89.92
26657;BME280;14279;50.010;8.260;2024-01-30T08:08:09;101902.78;;;3.16;89.25
26657;BME280;14279;50.010;8.260;2024-01-30T08:10:35;101904.59;;;3.22;89.13
26657;BME280;14279;50.010;8.260;2024-01-30T08:13:00;101891.78;;;3.30;88.73
26657;BME280;14279;50.010;8.260;2024-01-30T08:15:26;101893.56;;;3.39;87.94
26657;BME280;14279;50.010;8.260;2024-01-30T08:17:51;101892.72;;;3.40;88.16
26657;BME280;14279;50.010;8.260;2024-01-30T08:20:21;101897.06;;;3.47;87.15
26657;BME280;14279;50.010;8.260;2024-01-30T08:22:47;101896.22;;;3.50;86.67
26657;BME280;14279;50.010;8.260;2024-01-30T08:25:12;101894.47;;;3.44;86.78
26657;BME280;14279;50.010;8.260;2024-01-30T08:27:37;101896.97;;;3.38;86.97
26657;BME280;14279;50.010;8.260;2024-01-30T08:30:05;101895.19;;;3.30;86.94
26657;BME280;14279;50.010;8.260;2024-01-30T08:32:31;101895.16;;;3.26;86.79
26657;BME280;14279;50.010;8.260;2024-01-30T08:34:56;101897.66;;;3.20;87.28
26657;BME280;14279;50.010;8.260;2024-01-30T08:37:21;101896.72;;;3.08;87.11
26657;BME280;14279;50.010;8.260;2024-01-30T08:39:47;101901.16;;;3.23;87.07
26657;BME280;14279;50.010;8.260;2024-01-30T08:42:12;101891.84;;;3.38;86.79
26657;BME280;14279;50.010;8.260;2024-01-30T08:44:37;101890.97;;;3.40;86.65
26657;BME280;14279;50.010;8.260;2024-01-30T08:47:04;101891.88;;;3.41;86.71
26657;BME280;14279;50.010;8.260;2024-01-30T08:49:29;101886.78;;;3.47;86.96
26657;BME280;14279;50.010;8.260;2024-01-30T08:51:54;101902.22;;;3.47;87.17
26657;BME280;14279;50.010;8.260;2024-01-30T08:54:20;101893.56;;;3.40;87.76
26657;BME280;14279;50.010;8.260;2024-01-30T08:56:45;101891.91;;;3.49;88.02
26657;BME280;14279;50.010;8.260;2024-01-30T08:59:10;101897.06;;;3.50;87.81
26657;BME280;14279;50.010;8.260;2024-01-30T09:01:36;101904.84;;;3.56;88.26
26657;BME280;14279;50.010;8.260;2024-01-30T09:04:01;101902.31;;;3.58;88.07
26657;BME280;14279;50.010;8.260;2024-01-30T09:06:26;101903.19;;;3.61;88.17
26657;BME280;14279;50.010;8.260;2024-01-30T09:08:53;101905.84;;;3.72;87.79
26657;BME280;14279;50.010;8.260;2024-01-30T09:11:19;101906.75;;;3.82;87.56
26657;BME280;14279;50.010;8.260;2024-01-30T09:13:44;101904.28;;;3.96;86.86
26657;BME280;14279;50.010;8.260;2024-01-30T09:16:09;101902.59;;;4.01;86.60
26657;BME280;14279;50.010;8.260;2024-01-30T09:18:34;101903.47;;;4.05;85.93
26657;BME280;14279;50.010;8.260;2024-01-30T09:21:00;101897.41;;;3.98;86.65
26657;BME280;14279;50.010;8.260;2024-01-30T09:23:27;101902.56;;;3.97;86.53
26657;BME280;14279;50.010;8.260;2024-01-30T09:25:52;101919.81;;;4.05;86.80
26657;BME280;14279;50.010;8.260;2024-01-30T09:28:17;101912.06;;;4.05;86.67
26657;BME280;14279;50.010;8.260;2024-01-30T09:30:43;101911.22;;;4.13;86.42
26657;BME280;14279;50.010;8.260;2024-01-30T09:33:08;101920.69;;;4.12;86.34
26657;BME280;14279;50.010;8.260;2024-01-30T09:35:33;101916.47;;;4.20;86.00
26657;BME280;14279;50.010;8.260;2024-01-30T09:37:59;101919.03;;;4.22;86.01
26657;BME280;14279;50.010;8.260;2024-01-30T09:40:24;101909.59;;;4.27;86.23
26657;BME280;14279;50.010;8.260;2024-01-30T09:42:50;101918.13;;;4.15;86.63
26657;BME280;14279;50.010;8.260;2024-01-30T09:45:18;101909.63;;;4.35;86.19
26657;BME280;14279;50.010;8.260;2024-01-30T09:47:45;101908.78;;;4.31;86.37
26657;BME280;14279;50.010;8.260;2024-01-30T09:50:12;101915.66;;;4.32;86.52
26657;BME280;14279;50.010;8.260;2024-01-30T09:52:37;101915.66;;;4.37;86.34
26657;BME280;14279;50.010;8.260;2024-01-30T09:55:04;101912.19;;;4.32;86.19
26657;BME280;14279;50.010;8.260;2024-01-30T09:57:29;101918.19;;;4.26;86.24
26657;BME280;14279;50.010;8.260;2024-01-30T09:59:55;101922.50;;;4.33;86.29
26657;BME280;14279;50.010;8.260;2024-01-30T10:02:20;101917.38;;;4.38;86.52
26657;BME280;14279;50.010;8.260;2024-01-30T10:04:52;101923.44;;;4.46;85.88
26657;BME280;14279;50.010;8.260;2024-01-30T10:07:18;101917.53;;;4.69;86.12
26657;BME280;14279;50.010;8.260;2024-01-30T10:09:44;101915.84;;;4.79;85.00
26657;BME280;14279;50.010;8.260;2024-01-30T10:12:09;101904.66;;;4.86;84.37
26657;BME280;14279;50.010;8.260;2024-01-30T10:14:39;101908.97;;;5.01;83.88
26657;BME280;14279;50.010;8.260;2024-01-30T10:17:04;101906.44;;;5.14;83.69
26657;BME280;14279;50.010;8.260;2024-01-30T10:19:30;101900.38;;;5.10;83.25
26657;BME280;14279;50.010;8.260;2024-01-30T10:21:56;101902.97;;;5.13;83.13
26657;BME280;14279;50.010;8.260;2024-01-30T10:24:24;101899.56;;;5.26;82.55
26657;BME280;14279;50.010;8.260;2024-01-30T10:26:50;101903.00;;;5.36;81.86
26657;BME280;14279;50.010;8.260;2024-01-30T10:29:16;101907.31;;;5.39;82.30
26657;BME280;14279;50.010;8.260;2024-01-30T10:31:42;101902.13;;;5.44;81.93
26657;BME280;14279;50.010;8.260;2024-01-30T10:34:07;101912.47;;;5.50;81.69
26657;BME280;14279;50.010;8.260;2024-01-30T10:36:39;101903.88;;;5.49;81.54
26657;BME280;14279;50.010;8.260;2024-01-30T10:39:06;101909.03;;;5.43;82.00
26657;BME280;14279;50.010;8.260;2024-01-30T10:41:39;101917.66;;;5.53;81.54
26657;BME280;14279;50.010;8.260;2024-01-30T10:44:08;101910.75;;;5.80;80.23
26657;BME280;14279;50.010;8.260;2024-01-30T10:46:35;101912.47;;;5.76;80.65
26657;BME280;14279;50.010;8.260;2024-01-30T10:49:03;101913.31;;;5.67;80.99
26657;BME280;14279;50.010;8.260;2024-01-30T10:51:30;101905.56;;;5.74;80.56
26657;BME280;14279;50.010;8.260;2024-01-30T10:53:56;101896.09;;;5.82;80.94
26657;BME280;14279;50.010;8.260;2024-01-30T10:56:22;101902.97;;;5.89;80.74
26657;BME280;14279;50.010;8.260;2024-01-30T10:58:50;101904.69;;;6.04;79.82
26657;BME280;14279;50.010;8.260;2024-01-30T11:01:16;101901.22;;;6.08;79.58
26657;BME280;14279;50.010;8.260;2024-01-30T11:03:44;101907.28;;;5.92;80.40
26657;BME280;14279;50.010;8.260;2024-01-30T11:06:10;101893.50;;;5.72;81.48
26657;BME280;14279;50.010;8.260;2024-01-30T11:08:37;101895.22;;;5.74;82.04
26657;BME280;14279;50.010;8.260;2024-01-30T11:11:08;101894.38;;;5.70;82.33
26657;BME280;14279;50.010;8.260;2024-01-30T11:13:34;101894.38;;;5.64;82.81
26657;BME280;14279;50.010;8.260;2024-01-30T11:16:04;101901.25;;;5.82;82.64
26657;BME280;14279;50.010;8.260;2024-01-30T11:18:30;101898.69;;;5.69;83.09
26657;BME280;14279;50.010;8.260;2024-01-30T11:20:57;101896.09;;;5.71;82.99
26657;BME280;14279;50.010;8.260;2024-01-30T11:23:23;101886.63;;;5.70;83.80
26657;BME280;14279;50.010;8.260;2024-01-30T11:25:48;101872.84;;;5.85;83.21
26657;BME280;14279;50.010;8.260;2024-01-30T11:28:15;101877.16;;;5.63;84.36
26657;BME280;14279;50.010;8.260;2024-01-30T11:30:41;101878.03;;;5.63;84.41
26657;BME280;14279;50.010;8.260;2024-01-30T11:33:08;101884.03;;;5.68;83.95
26657;BME280;14279;50.010;8.260;2024-01-30T11:35:43;101877.16;;;5.77;83.27
26657;BME280;14279;50.010;8.260;2024-01-30T11:38:11;101878.00;;;5.69;83.72
26657;BME280;14279;50.010;8.260;2024-01-30T11:40:39;101873.72;;;5.65;84.27
26657;BME280;14279;50.010;8.260;2024-01-30T11:43:06;101867.66;;;5.85;83.50
26657;BME280;14279;50.010;8.260;2024-01-30T11:45:32;101879.69;;;6.06;83.22
26657;BME280;14279;50.010;8.260;2024-01-30T11:47:58;101877.97;;;6.08;83.28
26657;BME280;14279;50.010;8.260;2024-01-30T11:50:32;101870.22;;;6.07;82.78
26657;BME280;14279;50.010;8.260;2024-01-30T11:52:59;101862.38;;;6.25;82.41
26657;BME280;14279;50.010;8.260;2024-01-30T11:55:29;101870.19;;;6.21;82.88
26657;BME280;14279;50.010;8.260;2024-01-30T11:57:58;101873.66;;;6.10;84.39
26657;BME280;14279;50.010;8.260;2024-01-30T12:00:23;101868.44;;;6.23;83.31
26657;BME280;14279;50.010;8.260;2024-01-30T12:02:52;101871.88;;;6.23;83.00
26657;BME280;14279;50.010;8.260;2024-01-30T12:05:21;101872.72;;;6.27;83.24
26657;BME280;14279;50.010;8.260;2024-01-30T12:07:48;101867.56;;;6.28;83.00
26657;BME280;14279;50.010;8.260;2024-01-30T12:10:14;101870.13;;;6.28;83.51
26657;BME280;14279;50.010;8.260;2024-01-30T12:12:41;101863.16;;;6.43;83.01
26657;BME280;14279;50.010;8.260;2024-01-30T12:15:08;101856.22;;;6.57;82.18
26657;BME280;14279;50.010;8.260;2024-01-30T12:17:34;101863.91;;;6.68;81.61
26657;BME280;14279;50.010;8.260;2024-01-30T12:20:10;101853.44;;;6.90;81.10
26657;BME280;14279;50.010;8.260;2024-01-30T12:22:46;101849.94;;;6.94;80.15
26657;BME280;14279;50.010;8.260;2024-01-30T12:25:14;101850.69;;;7.12;79.83
26657;BME280;14279;50.010;8.260;2024-01-30T12:27:42;101846.31;;;7.17;79.48
26657;BME280;14279;50.010;8.260;2024-01-30T12:30:10;101842.81;;;7.22;78.89
26657;BME280;14279;50.010;8.260;2024-01-30T12:32:41;101836.75;;;7.27;78.77
26657;BME280;14279;50.010;8.260;2024-01-30T12:35:19;101841.69;;;7.51;77.82
26657;BME280;14279;50.010;8.260;2024-01-30T12:37:45;101848.38;;;7.74;76.84
26657;BME280;14279;50.010;8.260;2024-01-30T12:40:16;101843.16;;;7.79;76.67
26657;BME280;14279;50.010;8.260;2024-01-30T12:42:46;101835.28;;;7.87;76.22
26657;BME280;14279;50.010;8.260;2024-01-30T12:45:16;101840.38;;;7.96;75.61
26657;BME280;14279;50.010;8.260;2024-01-30T12:47:45;101835.13;;;8.02;75.63
26657;BME280;14279;50.010;8.260;2024-01-30T12:50:10;101825.66;;;7.96;74.82
26657;BME280;14279;50.010;8.260;2024-01-30T12:52:40;101824.88;;;7.91;75.65